Etusivu
METAR-TAF:

METAR-TAF

Lentoasemat :

Umiujaq, Quebec, Kanada

Leveyspiiri: 56-32N, Pituuspiiri: 076-31W, korkeus merenpinnasta: 71 m

Tämänhetkinen sää

Tämä raportti tehtiin 12 tuntia ja 8 minuuttia sitten, kello 22.00 UTC
Tuuli 31 kn idästä/koillisesta
Lämpötila -18°C
Kosteus 71%
Ilmanpaine 1014 hPa
Näkyvyys: 24.1 km
Muutamia pilviä 12000 ft:n korkeudessa
Muutamia pilviä 23000 ft:n korkeudessa
matalaa lumituiskua

METAR: CYMU 242200Z 06031KT 15SM DRSN FEW120 FEW230 M18/M22 A2995 RMK AC1CI1 AC TR LAST STFD OBS/NEXT 25 1300Z SLP153

Aika: 05:08 (10:08 UTC)


TAF: puuttuu

Säähavainnot ja -ennusteet yli 4000 lentoasemalta (METAR- ja TAF-raportit).

Käytössä olevat sääasemat on merkitty karttaan keltaisilla ja punaisilla pisteillä.

Aseta hiiri pisteen päälle nähdäksesi sääaseman nimen.

Klikkaa sitten nähdäksesi säähavainnot ja -ennusteet.

Kartan vaihtaminen: klikkaa mustalla rastilla varustettuja vihreitä pisteitä, niin voit zoomata sisään; viivalla varustettua vihreää pistettä, niin voit zoomata ulos tai vihreitä nuolia, niin pääset viereisille kartoille.


METAR-TAF: